createdAt,value
2019-01-17T00:00:55.780Z,-2.30
2019-01-17T00:04:14.736Z,-2.20
2019-01-17T00:07:13.824Z,-2.10
2019-01-17T00:10:19.180Z,-2.10
2019-01-17T00:13:21.052Z,-2.00
2019-01-17T00:16:31.488Z,-2.00
2019-01-17T00:19:47.119Z,-2.00
2019-01-17T00:22:49.174Z,-2.00
2019-01-17T00:26:01.628Z,-1.90
2019-01-17T00:29:08.460Z,-1.90
2019-01-17T00:32:05.675Z,-1.90
2019-01-17T00:35:06.010Z,-1.80
2019-01-17T00:38:07.663Z,-1.80
2019-01-17T00:41:13.356Z,-1.90
2019-01-17T00:44:26.409Z,-1.90
2019-01-17T00:47:24.650Z,-1.90
2019-01-17T00:50:33.861Z,-2.00
2019-01-17T00:53:30.063Z,-2.00
2019-01-17T00:56:34.032Z,-2.10
2019-01-17T00:59:41.521Z,-2.10
2019-01-17T01:02:44.468Z,-2.10
2019-01-17T01:05:42.660Z,-2.10
2019-01-17T01:08:51.823Z,-2.20
2019-01-17T01:11:59.037Z,-2.10
2019-01-17T01:14:59.879Z,-2.10
2019-01-17T01:18:00.863Z,-2.00
2019-01-17T01:21:05.535Z,-2.10
2019-01-17T01:24:04.537Z,-2.10
2019-01-17T01:27:09.869Z,-2.00
2019-01-17T01:30:34.677Z,-2.00
2019-01-17T01:33:41.536Z,-2.00
2019-01-17T01:36:46.693Z,-2.00
2019-01-17T01:39:56.429Z,-2.00
2019-01-17T01:43:05.757Z,-1.90
2019-01-17T01:46:27.673Z,-2.00
2019-01-17T01:49:40.183Z,-2.00
2019-01-17T01:52:53.104Z,-2.00
2019-01-17T01:55:40.621Z,-2.00
2019-01-17T01:58:28.283Z,-2.20
2019-01-17T02:01:15.931Z,-2.30
2019-01-17T02:04:03.796Z,-2.40
2019-01-17T02:06:51.827Z,-2.50
2019-01-17T02:09:39.622Z,-2.60
2019-01-17T04:00:24.464Z,-3.00
2019-01-17T04:03:11.917Z,-3.00
2019-01-17T04:05:59.829Z,-3.10
2019-01-17T04:08:47.752Z,-3.10
2019-01-17T04:11:35.248Z,-3.10
2019-01-17T04:14:22.874Z,-3.20
2019-01-17T04:17:10.921Z,-3.20
2019-01-17T04:19:58.429Z,-3.20
2019-01-17T04:22:45.852Z,-3.20
2019-01-17T04:25:33.755Z,-3.30
2019-01-17T04:28:21.410Z,-3.30
2019-01-17T04:31:09.306Z,-3.30
2019-01-17T04:33:57.494Z,-3.30
2019-01-17T04:36:45.127Z,-3.30
2019-01-17T04:39:32.959Z,-3.30
2019-01-17T04:42:20.555Z,-3.30
2019-01-17T04:45:08.723Z,-3.30
2019-01-17T04:47:56.116Z,-3.30
2019-01-17T04:50:44.290Z,-3.30
2019-01-17T04:53:32.120Z,-3.40
2019-01-17T04:56:19.655Z,-3.40
2019-01-17T04:59:07.084Z,-3.50
2019-01-17T05:01:55.568Z,-3.50
2019-01-17T05:04:43.360Z,-3.50
2019-01-17T05:07:30.918Z,-3.50
2019-01-17T05:10:18.934Z,-3.40
2019-01-17T05:13:07.080Z,-3.40
2019-01-17T05:15:54.776Z,-3.40
2019-01-17T05:18:42.602Z,-3.30
2019-01-17T05:21:30.194Z,-3.20
2019-01-17T05:24:17.838Z,-3.20
2019-01-17T05:27:05.857Z,-3.20
2019-01-17T05:29:53.470Z,-3.20
2019-01-17T05:32:41.213Z,-3.20
2019-01-17T05:35:28.842Z,-3.10
2019-01-17T05:38:16.770Z,-3.10
2019-01-17T05:41:04.699Z,-3.10
2019-01-17T05:43:52.138Z,-3.10
2019-01-17T05:46:39.876Z,-3.10
2019-01-17T05:49:27.560Z,-3.10
2019-01-17T05:52:15.317Z,-3.10
2019-01-17T05:55:03.006Z,-3.10
2019-01-17T05:57:50.986Z,-3.10
2019-01-17T06:00:38.659Z,-3.10
2019-01-17T06:03:26.760Z,-3.10
2019-01-17T06:06:14.576Z,-3.10
2019-01-17T06:09:03.916Z,-3.10
2019-01-17T06:11:51.748Z,-3.10
2019-01-17T06:14:39.605Z,-3.10
2019-01-17T06:17:27.384Z,-3.20
2019-01-17T06:20:16.027Z,-3.20
2019-01-17T06:23:04.281Z,-3.20
2019-01-17T06:25:51.902Z,-3.20
2019-01-17T06:28:39.262Z,-3.20
2019-01-17T06:31:27.270Z,-3.20
2019-01-17T06:34:14.989Z,-3.10
2019-01-17T06:37:02.587Z,-3.10
2019-01-17T06:39:50.465Z,-3.10
2019-01-17T06:42:38.226Z,-3.10
2019-01-17T06:45:25.554Z,-3.10
2019-01-17T06:48:13.765Z,-3.10
2019-01-17T06:51:01.711Z,-3.00
2019-01-17T06:53:49.636Z,-3.00
2019-01-17T06:56:37.014Z,-3.00
2019-01-17T06:59:24.959Z,-3.00
2019-01-17T07:02:13.085Z,-3.00
2019-01-17T07:05:01.442Z,-3.00
2019-01-17T07:07:49.228Z,-3.10
2019-01-17T07:10:37.002Z,-3.20
2019-01-17T07:13:24.604Z,-3.10
2019-01-17T07:16:11.981Z,-3.10
2019-01-17T07:18:59.498Z,-3.00
2019-01-17T07:21:47.435Z,-3.10
2019-01-17T07:24:35.446Z,-3.10
2019-01-17T07:27:23.185Z,-3.00
2019-01-17T07:30:17.081Z,-3.00
2019-01-17T07:33:04.977Z,-2.90
2019-01-17T07:35:52.690Z,-2.90
2019-01-17T07:38:40.623Z,-2.70
2019-01-17T07:41:28.573Z,-2.40
2019-01-17T07:44:16.461Z,-2.20
2019-01-17T07:47:04.430Z,-2.10
2019-01-17T07:49:52.405Z,-1.80
2019-01-17T07:52:40.192Z,-1.20
2019-01-17T07:55:28.464Z,-0.90
2019-01-17T07:58:16.269Z,-0.60
2019-01-17T08:01:04.269Z,-0.40
2019-01-17T08:03:51.902Z,-0.10
2019-01-17T08:06:39.262Z,0.10
2019-01-17T08:09:26.931Z,0.20
2019-01-17T08:12:14.572Z,0.40
2019-01-17T08:15:02.288Z,0.60
2019-01-17T08:17:50.432Z,0.80
2019-01-17T08:20:38.495Z,0.90
2019-01-17T08:23:26.381Z,1.10
2019-01-17T08:26:14.672Z,1.40
2019-01-17T08:29:02.089Z,1.50
2019-01-17T08:31:49.750Z,1.80
2019-01-17T08:34:37.881Z,2.00
2019-01-17T08:37:25.524Z,2.20
2019-01-17T08:40:20.438Z,2.30
2019-01-17T08:43:07.212Z,2.60
2019-01-17T08:45:55.402Z,2.90
2019-01-17T08:48:43.199Z,3.00
2019-01-17T08:51:30.985Z,3.20
2019-01-17T08:54:18.732Z,3.30
2019-01-17T08:57:06.604Z,3.40
2019-01-17T08:59:54.455Z,3.40
2019-01-17T09:02:42.283Z,3.60
2019-01-17T09:05:29.727Z,3.70
2019-01-17T09:08:17.603Z,3.90
2019-01-17T09:11:05.385Z,4.00
2019-01-17T09:13:52.942Z,4.20
2019-01-17T09:16:40.535Z,4.30
2019-01-17T09:19:28.787Z,4.50
2019-01-17T09:22:16.365Z,4.70
2019-01-17T09:25:04.472Z,4.90
2019-01-17T09:27:51.992Z,5.00
2019-01-17T09:30:40.297Z,5.20
2019-01-17T09:33:27.982Z,5.50
2019-01-17T09:36:15.915Z,5.70
2019-01-17T09:39:05.259Z,6.00
2019-01-17T09:41:52.953Z,6.20
2019-01-17T09:44:40.773Z,6.40
2019-01-17T09:47:28.134Z,6.50
2019-01-17T09:50:21.157Z,6.60
2019-01-17T09:53:08.874Z,6.70
2019-01-17T09:55:57.124Z,6.80
2019-01-17T09:58:45.037Z,6.90
2019-01-17T10:01:32.620Z,7.00
2019-01-17T10:04:20.410Z,7.10
2019-01-17T10:07:08.130Z,7.10
2019-01-17T10:09:55.793Z,7.20
2019-01-17T10:12:43.615Z,7.30
2019-01-17T10:16:08.466Z,7.30
2019-01-17T10:19:29.943Z,7.30
2019-01-17T10:23:10.926Z,7.20
2019-01-17T10:26:36.814Z,7.30
2019-01-17T10:30:10.034Z,7.30
2019-01-17T10:33:24.402Z,7.30
2019-01-17T10:36:51.498Z,7.30
2019-01-17T10:40:23.326Z,7.20
2019-01-17T10:43:43.605Z,7.10
2019-01-17T10:47:03.521Z,7.10
2019-01-17T10:50:18.454Z,7.10
2019-01-17T10:53:35.752Z,7.10
2019-01-17T10:56:55.475Z,7.10
2019-01-17T11:00:16.756Z,7.10
2019-01-17T11:03:39.827Z,7.10
2019-01-17T11:07:04.027Z,7.10
2019-01-17T11:09:59.830Z,7.20
2019-01-17T11:13:46.962Z,7.20
2019-01-17T11:17:33.361Z,7.30
2019-01-17T11:20:53.858Z,7.40
2019-01-17T11:23:58.273Z,7.40
2019-01-17T11:27:34.244Z,7.30
2019-01-17T11:30:49.683Z,7.30
2019-01-17T11:34:02.023Z,7.50
2019-01-17T11:37:39.733Z,7.70
2019-01-17T11:40:56.037Z,7.90
2019-01-17T11:44:37.087Z,8.00
2019-01-17T11:48:08.537Z,8.20
2019-01-17T11:51:39.303Z,8.40
2019-01-17T11:54:47.752Z,8.50
2019-01-17T11:58:15.004Z,8.60
2019-01-17T12:01:43.677Z,8.70
2019-01-17T12:04:33.678Z,8.70
2019-01-17T12:07:21.573Z,8.70
2019-01-17T12:10:09.438Z,8.70
2019-01-17T12:12:57.615Z,8.80
2019-01-17T12:15:45.866Z,8.60
2019-01-17T12:18:33.493Z,8.60
2019-01-17T12:21:21.474Z,8.60
2019-01-17T12:24:08.880Z,8.60
2019-01-17T12:26:56.909Z,8.60
2019-01-17T12:29:44.499Z,8.50
2019-01-17T12:32:32.166Z,8.50
2019-01-17T12:35:19.888Z,8.50
2019-01-17T12:38:07.887Z,8.50
2019-01-17T12:40:55.255Z,8.50
2019-01-17T12:43:42.865Z,8.50
2019-01-17T12:46:30.316Z,8.50
2019-01-17T12:49:17.969Z,8.50
2019-01-17T12:52:05.557Z,8.50
2019-01-17T12:54:53.113Z,8.70
2019-01-17T12:57:41.075Z,8.70
2019-01-17T13:00:28.827Z,8.80
2019-01-17T13:03:16.777Z,8.90
2019-01-17T13:06:04.678Z,9.00
2019-01-17T13:08:52.581Z,9.20
2019-01-17T13:11:40.446Z,9.20
2019-01-17T13:14:28.570Z,9.40
2019-01-17T13:17:16.096Z,9.20
2019-01-17T13:20:05.367Z,9.00
2019-01-17T13:22:53.075Z,8.80
2019-01-17T13:25:40.716Z,8.60
2019-01-17T13:28:28.298Z,8.40
2019-01-17T13:31:15.931Z,8.20
2019-01-17T13:34:03.799Z,8.10
2019-01-17T13:36:51.349Z,8.00
2019-01-17T13:39:39.035Z,8.00
2019-01-17T13:42:26.641Z,7.80
2019-01-17T13:45:15.894Z,7.60
2019-01-17T13:48:03.666Z,7.60
2019-01-17T13:50:51.275Z,7.70
2019-01-17T13:53:39.725Z,7.70
2019-01-17T13:56:27.605Z,7.70
2019-01-17T13:59:14.922Z,7.60
2019-01-17T14:02:02.816Z,7.50
2019-01-17T14:04:50.334Z,7.40
2019-01-17T14:07:37.725Z,7.20
2019-01-17T14:10:25.323Z,7.00
2019-01-17T14:13:13.260Z,6.80
2019-01-17T14:16:00.662Z,6.60
2019-01-17T14:18:48.757Z,6.50
2019-01-17T14:21:36.417Z,6.40
2019-01-17T14:24:24.224Z,6.30
2019-01-17T14:27:14.122Z,6.30
2019-01-17T14:30:01.132Z,6.10
2019-01-17T14:32:48.701Z,5.90
2019-01-17T14:35:36.643Z,5.70
2019-01-17T14:38:24.236Z,5.60
2019-01-17T14:41:11.759Z,5.50
2019-01-17T14:43:59.165Z,5.40
2019-01-17T14:46:46.802Z,5.30
2019-01-17T14:49:34.125Z,5.30
2019-01-17T14:52:21.708Z,5.20
2019-01-17T14:55:09.154Z,5.20
2019-01-17T14:57:56.737Z,5.00
2019-01-17T15:00:44.489Z,4.80
2019-01-17T15:03:32.051Z,4.80
2019-01-17T15:06:19.798Z,4.70
2019-01-17T15:09:08.285Z,4.60
2019-01-17T15:11:55.870Z,4.60
2019-01-17T15:14:43.828Z,4.40
2019-01-17T15:17:31.910Z,4.40
2019-01-17T15:20:20.012Z,4.20
2019-01-17T15:23:09.501Z,4.10
2019-01-17T15:25:57.317Z,4.00
2019-01-17T15:28:45.438Z,4.00
2019-01-17T15:31:33.089Z,3.90
2019-01-17T15:34:20.699Z,3.90
2019-01-17T15:37:08.144Z,3.80
2019-01-17T15:39:55.655Z,3.80
2019-01-17T15:42:43.542Z,3.80
2019-01-17T15:45:31.491Z,3.70
2019-01-17T15:48:19.254Z,3.70
2019-01-17T15:51:07.056Z,3.70
2019-01-17T15:53:54.595Z,3.70
2019-01-17T15:56:42.542Z,3.70
2019-01-17T15:59:30.038Z,3.70
2019-01-17T16:02:17.730Z,3.70
2019-01-17T16:05:05.433Z,3.70
2019-01-17T16:07:52.982Z,3.60
2019-01-17T16:10:40.690Z,3.70
2019-01-17T16:13:28.553Z,3.70
2019-01-17T16:16:16.469Z,3.70
2019-01-17T16:19:04.103Z,3.60
2019-01-17T16:21:51.846Z,3.60
2019-01-17T16:24:39.387Z,3.50
2019-01-17T16:27:27.352Z,3.50
2019-01-17T16:30:20.181Z,3.50
2019-01-17T16:33:08.009Z,3.40
2019-01-17T16:35:55.429Z,3.50
2019-01-17T16:38:43.104Z,3.50
2019-01-17T16:41:30.605Z,3.50
2019-01-17T16:44:18.215Z,3.50
2019-01-17T16:47:05.954Z,3.60
2019-01-17T16:49:53.781Z,3.60
2019-01-17T16:52:41.133Z,3.70
2019-01-17T16:55:28.727Z,3.70
2019-01-17T16:58:17.192Z,3.80
2019-01-17T17:01:05.223Z,3.80
2019-01-17T17:03:53.349Z,3.80
2019-01-17T17:06:41.736Z,3.80
2019-01-17T17:09:30.127Z,3.70
2019-01-17T17:12:18.018Z,3.80
2019-01-17T17:15:06.494Z,3.70
2019-01-17T17:17:54.115Z,3.70
2019-01-17T17:20:42.069Z,3.70
2019-01-17T17:23:29.946Z,3.70
2019-01-17T17:26:17.766Z,3.60
2019-01-17T17:29:05.382Z,3.60
2019-01-17T17:31:53.405Z,3.70
2019-01-17T17:34:40.700Z,3.70
2019-01-17T17:37:28.406Z,3.70
2019-01-17T17:40:19.263Z,3.80
2019-01-17T17:43:07.245Z,3.80
2019-01-17T17:45:55.062Z,3.80
2019-01-17T17:48:42.944Z,3.90
2019-01-17T17:51:30.777Z,3.90
2019-01-17T17:54:18.739Z,3.80
2019-01-17T17:57:06.580Z,3.80
2019-01-17T17:59:53.886Z,3.80
2019-01-17T18:02:42.068Z,3.80
2019-01-17T18:05:29.580Z,3.80
2019-01-17T18:08:17.490Z,3.80
2019-01-17T18:11:05.080Z,3.80
2019-01-17T18:13:52.569Z,3.80
2019-01-17T18:16:40.891Z,3.80
2019-01-17T18:19:29.016Z,3.80
2019-01-17T18:22:16.706Z,3.80
2019-01-17T18:25:05.156Z,3.80
2019-01-17T18:27:53.000Z,3.80
2019-01-17T18:30:40.914Z,3.80
2019-01-17T18:33:28.772Z,3.80
2019-01-17T18:36:16.907Z,3.80
2019-01-17T18:39:09.705Z,3.70
2019-01-17T18:41:57.616Z,3.70
2019-01-17T18:44:46.968Z,3.80
2019-01-17T18:47:34.699Z,3.80
2019-01-17T18:50:27.857Z,3.70
2019-01-17T18:53:15.693Z,3.70
2019-01-17T18:56:03.278Z,3.70
2019-01-17T18:58:51.153Z,3.70
2019-01-17T19:01:38.906Z,3.70
2019-01-17T19:04:26.788Z,3.70
2019-01-17T19:07:14.251Z,3.70
2019-01-17T19:10:02.330Z,3.70
2019-01-17T19:12:53.125Z,3.60
2019-01-17T19:15:40.875Z,3.70
2019-01-17T19:18:30.174Z,3.60
2019-01-17T19:21:18.087Z,3.60
2019-01-17T19:24:06.017Z,3.60
2019-01-17T19:26:53.891Z,3.50
2019-01-17T19:29:41.753Z,3.50
2019-01-17T19:32:29.737Z,3.50
2019-01-17T19:35:17.674Z,3.40
2019-01-17T19:38:05.267Z,3.30
2019-01-17T19:40:52.724Z,3.20
2019-01-17T19:43:40.540Z,3.30
2019-01-17T19:46:28.590Z,3.20
2019-01-17T19:49:16.581Z,3.10
2019-01-17T19:52:05.078Z,3.10
2019-01-17T19:54:52.789Z,3.00
2019-01-17T19:57:40.664Z,2.90
2019-01-17T20:00:28.367Z,2.80
2019-01-17T20:03:16.329Z,2.70
2019-01-17T20:06:04.420Z,2.60
2019-01-17T20:08:52.132Z,2.50
2019-01-17T20:11:39.448Z,2.50
2019-01-17T20:14:27.265Z,2.50
2019-01-17T20:17:16.252Z,2.50
2019-01-17T20:20:04.190Z,2.50
2019-01-17T20:22:51.499Z,2.40
2019-01-17T20:25:39.379Z,2.40
2019-01-17T20:28:27.585Z,2.40
2019-01-17T20:31:15.438Z,2.40
2019-01-17T20:34:03.018Z,2.40
2019-01-17T20:36:50.551Z,2.50
2019-01-17T20:39:38.412Z,2.60
2019-01-17T20:42:26.000Z,2.60
2019-01-17T20:45:13.618Z,2.60
2019-01-17T20:48:01.431Z,2.60
2019-01-17T20:50:48.932Z,2.50
2019-01-17T20:53:36.385Z,2.60
2019-01-17T20:56:23.856Z,2.60
2019-01-17T20:59:11.338Z,2.60
2019-01-17T21:02:06.757Z,2.60
2019-01-17T21:04:54.474Z,2.60
2019-01-17T21:07:41.956Z,2.60
2019-01-17T21:10:29.657Z,2.60
2019-01-17T21:13:17.537Z,2.60
2019-01-17T21:16:05.101Z,2.60
2019-01-17T21:18:52.500Z,2.70
2019-01-17T21:21:40.139Z,2.70
2019-01-17T21:24:27.437Z,2.70
2019-01-17T21:27:14.813Z,2.70
2019-01-17T21:30:02.460Z,2.60
2019-01-17T21:32:49.915Z,2.60
2019-01-17T21:35:38.127Z,2.60
2019-01-17T21:38:26.195Z,2.60
2019-01-17T21:41:13.718Z,2.60
2019-01-17T21:44:01.773Z,2.60
2019-01-17T21:46:49.709Z,2.60
2019-01-17T21:49:37.971Z,2.60
2019-01-17T21:52:26.070Z,2.50
2019-01-17T21:55:13.965Z,2.60
2019-01-17T21:58:01.921Z,2.60
2019-01-17T22:00:49.657Z,2.60
2019-01-17T22:03:37.332Z,2.60
2019-01-17T22:06:25.018Z,2.60
2019-01-17T22:09:12.743Z,2.60
2019-01-17T22:12:00.115Z,2.60
2019-01-17T22:14:48.211Z,2.60
2019-01-17T22:17:36.079Z,2.60
2019-01-17T22:20:24.210Z,2.60
2019-01-17T22:23:12.260Z,2.60
2019-01-17T22:26:00.482Z,2.50
2019-01-17T22:28:47.829Z,2.50
2019-01-17T22:31:35.375Z,2.50
2019-01-17T22:34:22.488Z,2.50
2019-01-17T22:37:10.177Z,2.50
2019-01-17T22:39:57.697Z,2.50
2019-01-17T22:42:45.446Z,2.50
2019-01-17T22:45:32.991Z,2.50
2019-01-17T22:48:20.582Z,2.50
2019-01-17T22:51:07.887Z,2.50
2019-01-17T22:53:55.024Z,2.50
2019-01-17T22:56:42.938Z,2.50
2019-01-17T22:59:30.612Z,2.50
2019-01-17T23:02:18.174Z,2.40
2019-01-17T23:05:05.811Z,2.40
2019-01-17T23:07:53.348Z,2.40
2019-01-17T23:10:41.203Z,2.40
2019-01-17T23:13:28.761Z,2.40
2019-01-17T23:16:16.050Z,2.30
2019-01-17T23:19:03.285Z,2.30
2019-01-17T23:21:51.048Z,2.20
2019-01-17T23:24:38.632Z,2.20
2019-01-17T23:27:26.059Z,2.20
2019-01-17T23:30:13.408Z,2.20
2019-01-17T23:33:00.810Z,2.20
2019-01-17T23:35:48.482Z,2.10
2019-01-17T23:38:35.893Z,2.10
2019-01-17T23:41:23.505Z,2.10
2019-01-17T23:44:10.584Z,2.10
2019-01-17T23:46:58.022Z,2.00
2019-01-17T23:49:45.749Z,2.00
2019-01-17T23:52:33.115Z,2.00
2019-01-17T23:55:20.327Z,1.90
2019-01-17T23:58:08.298Z,2.00
